Terminal Aerodrome Forecast
Issued by NWS Sterling, VA

Home | Current Version | Previous Version | Text Only | Print | Product List | Glossary On
Versions: 1 2 3 4 5 6 7 8 9 10 11 12 13 14 15 16 17
000
FTUS41 KLWX 240500
TAFCHO
TAF
KCHO 240538Z 2406/2506 00000KT 2SM BR SCT040 SCT100
     FM240700 00000KT 3SM -SHRA BR BKN040 OVC080
     FM240900 VRB03KT 5SM -SHRA BR SCT030 OVC050
      TEMPO 2409/2413 00000KT 1SM BR OVC015
     FM241300 VRB03KT P6SM -SHRA BKN060 BKN100
     FM241600 04005KT P6SM -SHRA OVC040
     FM241900 36006KT P6SM VCTS OVC040CB
     FM250000 VRB04KT P6SM -SHRA BKN040 OVC080=

USA.gov is the U.S. government's official web portal to all federal, state and local government web resources and services.